createdAt,value
2022-11-08T00:00:11.142Z,8.80
2022-11-08T00:02:39.461Z,8.80
2022-11-08T00:05:25.558Z,8.70
2022-11-08T00:08:11.134Z,8.70
2022-11-08T00:10:58.165Z,8.60
2022-11-08T00:13:43.726Z,8.60
2022-11-08T00:16:11.868Z,8.60
2022-11-08T00:18:39.856Z,8.60
2022-11-08T00:21:08.143Z,8.50
2022-11-08T00:23:36.236Z,8.50
2022-11-08T00:26:05.750Z,8.40
2022-11-08T00:28:33.801Z,8.30
2022-11-08T00:31:07.004Z,8.30
2022-11-08T00:33:35.535Z,8.20
2022-11-08T00:36:04.529Z,8.20
2022-11-08T00:38:32.549Z,8.20
2022-11-08T00:41:00.564Z,8.10
2022-11-08T00:43:29.965Z,8.10
2022-11-08T00:45:57.986Z,8.00
2022-11-08T00:48:26.017Z,8.00
2022-11-08T00:50:54.071Z,7.90
2022-11-08T00:53:22.144Z,7.90
2022-11-08T00:55:50.131Z,7.80
2022-11-08T00:58:19.457Z,7.80
2022-11-08T01:00:51.715Z,7.70
2022-11-08T01:03:19.770Z,7.60
2022-11-08T01:05:48.552Z,7.60
2022-11-08T01:08:17.160Z,7.60
2022-11-08T01:10:47.461Z,7.60
2022-11-08T01:13:15.822Z,7.60
2022-11-08T01:15:45.645Z,7.70
2022-11-08T01:18:17.672Z,7.80
2022-11-08T01:20:47.907Z,7.80
2022-11-08T01:23:16.409Z,7.80
2022-11-08T01:25:47.411Z,7.90
2022-11-08T01:28:16.242Z,7.90
2022-11-08T01:30:45.668Z,7.90
2022-11-08T01:33:16.135Z,7.90
2022-11-08T01:35:46.298Z,7.80
2022-11-08T01:38:15.049Z,7.80
2022-11-08T01:40:44.329Z,7.80
2022-11-08T01:43:43.845Z,7.80
2022-11-08T01:46:42.672Z,7.80
2022-11-08T01:49:32.812Z,7.80
2022-11-08T01:52:07.334Z,7.70
2022-11-08T01:54:40.615Z,7.70
2022-11-08T01:57:11.105Z,7.70
2022-11-08T01:59:41.998Z,7.60
2022-11-08T02:02:11.012Z,7.60
2022-11-08T02:04:42.362Z,7.50
2022-11-08T02:07:13.112Z,7.50
2022-11-08T02:09:44.619Z,7.40
2022-11-08T02:12:14.649Z,7.40
2022-11-08T02:14:42.796Z,7.30
2022-11-08T02:17:10.922Z,7.30
2022-11-08T02:19:43.772Z,7.30
2022-11-08T02:22:22.356Z,7.20
2022-11-08T02:24:51.896Z,7.10
2022-11-08T02:27:20.081Z,7.10
2022-11-08T02:29:48.128Z,7.10
2022-11-08T02:32:16.156Z,7.10
2022-11-08T02:34:47.562Z,7.00
2022-11-08T02:37:17.856Z,7.00
2022-11-08T02:39:46.610Z,7.00
2022-11-08T02:42:18.591Z,6.90
2022-11-08T02:44:46.912Z,6.80
2022-11-08T02:47:15.076Z,6.80
2022-11-08T02:49:43.233Z,6.80
2022-11-08T02:52:11.473Z,6.70
2022-11-08T02:54:39.779Z,6.70
2022-11-08T02:57:07.917Z,6.70
2022-11-08T02:59:37.315Z,6.70
2022-11-08T03:02:05.408Z,6.70
2022-11-08T03:04:33.914Z,6.70
2022-11-08T03:07:01.943Z,6.70
2022-11-08T03:09:29.957Z,6.70
2022-11-08T03:11:57.920Z,6.70
2022-11-08T03:14:25.895Z,6.70
2022-11-08T03:16:55.343Z,6.60
2022-11-08T03:19:23.552Z,6.60
2022-11-08T03:21:51.633Z,6.50
2022-11-08T03:24:19.607Z,6.40
2022-11-08T03:26:47.598Z,6.40
2022-11-08T03:29:15.569Z,6.40
2022-11-08T03:31:43.571Z,6.30
2022-11-08T03:34:13.026Z,6.30
2022-11-08T03:36:41.010Z,6.20
2022-11-08T03:39:09.069Z,6.20
2022-11-08T03:41:37.106Z,6.10
2022-11-08T03:44:05.371Z,6.10
2022-11-08T03:46:33.473Z,6.00
2022-11-08T03:49:01.454Z,6.00
2022-11-08T03:51:30.836Z,6.00
2022-11-08T03:53:58.890Z,5.90
2022-11-08T03:56:26.958Z,5.90
2022-11-08T03:58:54.974Z,5.80
2022-11-08T04:01:23.228Z,5.80
2022-11-08T04:03:51.471Z,5.70
2022-11-08T04:06:19.656Z,5.70
2022-11-08T04:08:49.517Z,5.70
2022-11-08T04:11:35.194Z,5.70
2022-11-08T04:14:25.896Z,5.70
2022-11-08T04:16:54.153Z,5.60
2022-11-08T04:19:48.528Z,5.60
2022-11-08T04:22:16.600Z,5.60
2022-11-08T04:24:46.048Z,5.60
2022-11-08T04:27:14.088Z,5.50
2022-11-08T04:29:42.142Z,5.50
2022-11-08T04:32:10.219Z,5.50
2022-11-08T04:34:38.199Z,5.40
2022-11-08T04:37:06.247Z,5.40
2022-11-08T04:39:34.264Z,5.40
2022-11-08T04:42:04.185Z,5.40
2022-11-08T04:44:32.173Z,5.30
2022-11-08T04:47:00.228Z,5.30
2022-11-08T04:49:28.187Z,5.20
2022-11-08T04:51:56.284Z,5.20
2022-11-08T04:54:24.370Z,5.20
2022-11-08T04:56:52.477Z,5.20
2022-11-08T04:59:22.098Z,5.20
2022-11-08T05:01:50.317Z,5.20
2022-11-08T05:04:18.604Z,5.10
2022-11-08T05:06:46.664Z,5.10
2022-11-08T05:09:14.724Z,5.10
2022-11-08T05:11:42.724Z,5.10
2022-11-08T05:14:10.801Z,5.10
2022-11-08T05:16:40.242Z,5.10
2022-11-08T05:19:13.012Z,5.10
2022-11-08T05:21:58.692Z,5.10
2022-11-08T05:24:26.914Z,5.10
2022-11-08T05:26:55.029Z,5.10
2022-11-08T05:29:23.100Z,5.10
2022-11-08T05:31:52.551Z,5.10
2022-11-08T05:34:20.527Z,5.10
2022-11-08T05:36:48.536Z,5.00
2022-11-08T05:39:16.593Z,5.00
2022-11-08T05:41:44.697Z,5.00
2022-11-08T05:44:12.725Z,5.10
2022-11-08T05:46:40.771Z,5.10
2022-11-08T05:49:10.346Z,5.10
2022-11-08T05:51:38.416Z,5.10
2022-11-08T05:54:08.053Z,5.10
2022-11-08T05:56:36.783Z,5.10
2022-11-08T05:59:04.812Z,5.10
2022-11-08T06:01:32.905Z,5.00
2022-11-08T06:04:01.024Z,5.00
2022-11-08T06:06:30.438Z,5.00
2022-11-08T06:08:58.464Z,5.00
2022-11-08T06:11:28.599Z,5.00
2022-11-08T06:13:57.132Z,5.00
2022-11-08T06:16:26.090Z,5.00
2022-11-08T06:18:54.221Z,5.00
2022-11-08T06:21:23.201Z,5.00
2022-11-08T06:23:54.907Z,5.00
2022-11-08T06:26:23.092Z,5.00
2022-11-08T06:28:51.112Z,5.00
2022-11-08T06:31:19.167Z,5.00
2022-11-08T06:33:47.240Z,5.00
2022-11-08T06:36:15.298Z,5.10
2022-11-08T06:38:43.332Z,5.00
2022-11-08T06:41:18.786Z,5.00
2022-11-08T06:43:46.787Z,5.10
2022-11-08T06:46:15.001Z,5.10
2022-11-08T06:48:43.073Z,5.10
2022-11-08T06:51:11.250Z,5.10
2022-11-08T06:53:39.236Z,5.10
2022-11-08T06:56:07.695Z,5.10
2022-11-08T06:58:38.101Z,5.20
2022-11-08T07:01:06.836Z,5.20
2022-11-08T07:03:35.505Z,5.20
2022-11-08T07:06:04.266Z,5.20
2022-11-08T07:08:32.783Z,5.30
2022-11-08T07:11:00.976Z,5.20
2022-11-08T07:13:29.242Z,5.30
2022-11-08T07:16:00.971Z,5.30
2022-11-08T07:18:29.762Z,5.30
2022-11-08T07:21:01.025Z,5.40
2022-11-08T07:23:29.750Z,5.40
2022-11-08T07:25:57.874Z,5.50
2022-11-08T07:28:25.941Z,5.60
2022-11-08T07:31:00.771Z,5.60
2022-11-08T07:33:29.247Z,5.70
2022-11-08T07:35:58.035Z,5.80
2022-11-08T07:38:26.469Z,5.90
2022-11-08T07:40:57.774Z,6.00
2022-11-08T07:43:26.832Z,6.10
2022-11-08T07:45:56.636Z,6.20
2022-11-08T07:48:26.784Z,6.40
2022-11-08T07:50:56.058Z,6.60
2022-11-08T07:53:24.363Z,6.70
2022-11-08T07:55:53.321Z,6.90
2022-11-08T07:58:21.381Z,7.00
2022-11-08T08:00:50.262Z,7.20
2022-11-08T08:03:19.087Z,7.30
2022-11-08T08:05:56.779Z,7.50
2022-11-08T08:08:27.658Z,7.60
2022-11-08T08:10:58.424Z,7.80
2022-11-08T08:13:26.362Z,8.00
2022-11-08T08:15:55.097Z,8.40
2022-11-08T08:18:23.183Z,8.70
2022-11-08T08:20:52.597Z,9.00
2022-11-08T08:23:21.042Z,9.30
2022-11-08T08:25:49.172Z,9.60
2022-11-08T08:28:17.199Z,9.90
2022-11-08T08:30:45.606Z,10.20
2022-11-08T08:33:34.209Z,10.50
2022-11-08T08:36:04.422Z,10.90
2022-11-08T08:38:33.730Z,11.30
2022-11-08T08:41:02.689Z,11.60
2022-11-08T08:43:32.469Z,11.90
2022-11-08T08:46:01.853Z,12.10
2022-11-08T08:48:30.479Z,12.30
2022-11-08T08:50:59.046Z,12.40
2022-11-08T08:53:28.823Z,12.60
2022-11-08T08:55:56.891Z,12.90
2022-11-08T08:58:25.205Z,13.10
2022-11-08T09:03:41.140Z,13.20
2022-11-08T09:06:09.235Z,13.30
2022-11-08T09:08:38.835Z,13.30
2022-11-08T09:11:07.267Z,13.50
2022-11-08T09:13:35.396Z,13.50
2022-11-08T09:16:03.757Z,13.40
2022-11-08T09:18:32.973Z,13.20
2022-11-08T09:21:01.544Z,13.30
2022-11-08T09:23:29.567Z,13.40
2022-11-08T09:25:59.501Z,13.50
2022-11-08T09:28:31.166Z,13.60
2022-11-08T09:31:02.138Z,13.70
2022-11-08T09:33:30.468Z,13.70
2022-11-08T09:35:59.595Z,13.70
2022-11-08T09:38:27.972Z,13.80
2022-11-08T09:41:09.341Z,13.90
2022-11-08T09:43:48.725Z,13.90
2022-11-08T09:46:24.435Z,14.00
2022-11-08T09:48:53.646Z,14.10
2022-11-08T09:51:24.153Z,14.30
2022-11-08T09:53:56.075Z,14.50
2022-11-08T09:56:29.655Z,14.60
2022-11-08T09:59:02.213Z,14.80
2022-11-08T10:01:33.018Z,15.00
2022-11-08T10:04:06.437Z,15.00
2022-11-08T10:07:04.098Z,14.90
2022-11-08T10:09:45.611Z,14.70
2022-11-08T10:12:24.204Z,14.60
2022-11-08T10:15:13.934Z,14.50
2022-11-08T10:18:10.431Z,14.30
2022-11-08T10:20:49.832Z,14.30
2022-11-08T10:23:22.894Z,14.30
2022-11-08T10:25:54.787Z,14.30
2022-11-08T10:28:29.575Z,14.30
2022-11-08T10:30:57.913Z,14.30
2022-11-08T10:33:32.830Z,14.40
2022-11-08T10:36:04.509Z,14.30
2022-11-08T10:38:38.014Z,14.20
2022-11-08T10:41:14.252Z,14.30
2022-11-08T10:43:50.021Z,14.30
2022-11-08T10:46:41.482Z,14.20
2022-11-08T10:49:13.751Z,14.20
2022-11-08T10:51:41.789Z,14.10
2022-11-08T10:54:09.861Z,14.10
2022-11-08T10:56:55.964Z,14.20
2022-11-08T10:59:33.293Z,14.10
2022-11-08T11:02:01.919Z,14.10
2022-11-08T11:04:31.924Z,14.10
2022-11-08T11:07:03.486Z,14.10
2022-11-08T11:09:31.750Z,14.10
2022-11-08T11:12:02.655Z,14.10
2022-11-08T11:14:32.091Z,14.10
2022-11-08T11:17:04.722Z,14.00
2022-11-08T11:19:33.580Z,14.00
2022-11-08T11:22:05.804Z,14.00
2022-11-08T11:24:36.583Z,14.10
2022-11-08T11:27:07.857Z,14.10
2022-11-08T11:29:38.604Z,14.20
2022-11-08T11:32:24.743Z,14.30
2022-11-08T11:34:56.037Z,14.40
2022-11-08T11:37:33.845Z,14.40
2022-11-08T11:40:08.390Z,14.60
2022-11-08T11:42:46.194Z,14.70
2022-11-08T11:45:20.929Z,14.70
2022-11-08T11:47:53.699Z,14.80
2022-11-08T11:50:32.650Z,15.00
2022-11-08T11:53:02.334Z,15.00
2022-11-08T11:55:44.035Z,14.90
2022-11-08T11:58:28.308Z,14.90
2022-11-08T12:01:02.001Z,14.80
2022-11-08T12:03:47.889Z,14.80
2022-11-08T12:06:40.139Z,14.90
2022-11-08T12:09:23.720Z,14.90
2022-11-08T12:12:03.898Z,15.00
2022-11-08T12:14:54.139Z,15.10
2022-11-08T12:17:54.272Z,15.30
2022-11-08T12:20:34.652Z,15.40
2022-11-08T12:23:32.446Z,15.30
2022-11-08T12:26:07.636Z,15.30
2022-11-08T12:28:53.085Z,15.30
2022-11-08T12:31:27.721Z,15.30
2022-11-08T12:34:08.623Z,15.30
2022-11-08T12:36:44.944Z,15.20
2022-11-08T12:39:23.794Z,15.20
2022-11-08T12:42:00.784Z,15.10
2022-11-08T12:44:56.237Z,15.00
2022-11-08T12:47:35.690Z,15.10
2022-11-08T12:50:23.378Z,15.10
2022-11-08T12:53:06.370Z,15.00
2022-11-08T12:55:37.217Z,14.90
2022-11-08T12:58:25.509Z,15.00
2022-11-08T13:00:55.611Z,15.10
2022-11-08T13:03:47.297Z,15.20
2022-11-08T13:06:24.652Z,15.10
2022-11-08T13:09:03.632Z,15.10
2022-11-08T13:11:38.032Z,15.10
2022-11-08T13:14:06.712Z,15.10
2022-11-08T13:16:39.108Z,15.10
2022-11-08T13:19:07.817Z,15.10
2022-11-08T13:21:40.375Z,15.20
2022-11-08T13:24:45.450Z,15.20
2022-11-08T13:27:34.152Z,15.20
2022-11-08T13:30:37.423Z,15.20
2022-11-08T13:33:16.291Z,15.20
2022-11-08T13:35:54.097Z,15.30
2022-11-08T13:38:32.022Z,15.30
2022-11-08T13:41:16.770Z,15.30
2022-11-08T13:43:45.885Z,15.30
2022-11-08T13:46:48.867Z,15.20
2022-11-08T13:49:19.253Z,15.20
2022-11-08T13:51:47.379Z,15.10
2022-11-08T13:54:53.472Z,15.00
2022-11-08T13:57:42.603Z,14.80
2022-11-08T14:00:33.881Z,14.80
2022-11-08T14:03:01.929Z,14.70
2022-11-08T14:05:43.017Z,14.60
2022-11-08T14:08:19.604Z,14.70
2022-11-08T14:11:32.704Z,14.70
2022-11-08T14:14:39.847Z,14.80
2022-11-08T14:17:31.984Z,14.80
2022-11-08T14:20:18.613Z,14.70
2022-11-08T14:22:50.132Z,14.60
2022-11-08T14:25:31.072Z,14.60
2022-11-08T14:27:59.127Z,14.50
2022-11-08T14:30:27.714Z,14.40
2022-11-08T14:33:20.098Z,14.30
2022-11-08T14:35:59.387Z,14.20
2022-11-08T14:38:28.001Z,14.20
2022-11-08T14:40:58.935Z,14.10
2022-11-08T14:43:28.251Z,14.00
2022-11-08T14:45:58.116Z,13.90
2022-11-08T14:48:30.169Z,13.90
2022-11-08T14:51:02.556Z,13.80
2022-11-08T14:53:32.054Z,13.70
2022-11-08T14:56:15.534Z,13.60
2022-11-08T14:58:43.681Z,13.50
2022-11-08T15:01:13.481Z,13.40
2022-11-08T15:03:48.934Z,13.30
2022-11-08T15:06:16.972Z,13.20
2022-11-08T15:08:51.939Z,13.10
2022-11-08T15:11:31.702Z,13.00
2022-11-08T15:14:03.244Z,12.90
2022-11-08T15:16:40.879Z,12.80
2022-11-08T15:19:30.928Z,12.80
2022-11-08T15:22:00.453Z,12.60
2022-11-08T15:24:35.814Z,12.50
2022-11-08T15:27:09.442Z,12.50
2022-11-08T15:29:54.011Z,12.40
2022-11-08T15:32:23.460Z,12.30
2022-11-08T15:34:56.869Z,12.20
2022-11-08T15:37:30.557Z,12.10
2022-11-08T15:40:05.681Z,12.10
2022-11-08T15:42:35.024Z,12.10
2022-11-08T15:45:06.178Z,11.90
2022-11-08T15:47:38.418Z,11.90
2022-11-08T15:50:16.528Z,11.80
2022-11-08T15:52:45.542Z,11.60
2022-11-08T15:55:16.506Z,11.50
2022-11-08T15:57:46.651Z,11.30
2022-11-08T16:00:17.922Z,11.20
2022-11-08T16:02:47.157Z,11.10
2022-11-08T16:05:21.388Z,11.00
2022-11-08T16:07:49.718Z,10.90
2022-11-08T16:10:19.993Z,10.90
2022-11-08T16:12:48.960Z,10.80
2022-11-08T16:15:20.272Z,10.70
2022-11-08T16:17:48.399Z,10.70
2022-11-08T16:20:26.973Z,10.60
2022-11-08T16:22:55.303Z,10.60
2022-11-08T16:25:23.861Z,10.60
2022-11-08T16:27:54.986Z,10.60
2022-11-08T16:30:23.164Z,10.50
2022-11-08T16:32:51.182Z,10.40
2022-11-08T16:35:21.052Z,10.40
2022-11-08T16:37:50.702Z,10.40
2022-11-08T16:40:21.538Z,10.30
2022-11-08T16:42:51.466Z,10.30
2022-11-08T16:45:37.316Z,10.30
2022-11-08T16:48:14.863Z,10.30
2022-11-08T16:50:44.620Z,10.30
2022-11-08T16:53:16.765Z,10.30
2022-11-08T16:55:45.003Z,10.40
2022-11-08T16:58:13.268Z,10.50
2022-11-08T17:00:43.448Z,10.30
2022-11-08T17:03:17.244Z,10.40
2022-11-08T17:05:46.908Z,10.40
2022-11-08T17:08:19.160Z,10.50
2022-11-08T17:10:50.041Z,10.70
2022-11-08T17:13:20.075Z,10.70
2022-11-08T17:15:49.180Z,10.70
2022-11-08T17:18:20.992Z,10.70
2022-11-08T17:20:51.709Z,10.80
2022-11-08T17:23:23.902Z,10.70
2022-11-08T17:25:51.969Z,10.70
2022-11-08T17:28:20.545Z,10.60
2022-11-08T17:30:50.712Z,10.50
2022-11-08T17:33:19.147Z,10.50
2022-11-08T17:35:52.386Z,10.40
2022-11-08T17:38:25.067Z,10.30
2022-11-08T17:40:53.187Z,10.30
2022-11-08T17:43:22.542Z,10.20
2022-11-08T17:45:51.552Z,10.10
2022-11-08T17:48:19.696Z,10.00
2022-11-08T17:50:50.351Z,10.00
2022-11-08T17:53:18.692Z,9.90
2022-11-08T17:55:54.879Z,9.90
2022-11-08T17:58:29.498Z,9.90
2022-11-08T18:00:59.277Z,9.90
2022-11-08T18:03:29.966Z,9.90
2022-11-08T18:06:04.225Z,10.00
2022-11-08T18:08:52.630Z,10.00
2022-11-08T18:11:25.808Z,10.00
2022-11-08T18:17:24.017Z,9.70
2022-11-08T18:20:06.582Z,9.50
2022-11-08T18:22:36.127Z,9.40
2022-11-08T18:25:06.250Z,9.40
2022-11-08T18:27:34.587Z,9.30
2022-11-08T18:30:03.069Z,9.20
2022-11-08T18:32:38.535Z,9.30
2022-11-08T18:35:08.203Z,9.20
2022-11-08T18:37:52.483Z,9.10
2022-11-08T18:40:22.899Z,9.00
2022-11-08T18:42:52.424Z,9.00
2022-11-08T18:45:20.801Z,9.10
2022-11-08T18:47:49.353Z,9.10
2022-11-08T18:50:21.839Z,9.00
2022-11-08T18:53:06.875Z,9.10
2022-11-08T18:55:38.099Z,9.20
2022-11-08T18:58:08.968Z,9.20
2022-11-08T19:00:40.734Z,9.30
2022-11-08T19:03:09.967Z,9.30
2022-11-08T19:05:38.359Z,9.40
2022-11-08T19:08:08.214Z,9.40
2022-11-08T19:10:39.693Z,9.50
2022-11-08T19:13:08.341Z,9.60
2022-11-08T19:15:38.459Z,9.70
2022-11-08T19:18:07.998Z,9.80
2022-11-08T19:20:36.494Z,9.90
2022-11-08T19:23:04.694Z,9.80
2022-11-08T19:25:34.040Z,9.90
2022-11-08T19:28:02.041Z,9.90
2022-11-08T19:30:30.285Z,9.90
2022-11-08T19:32:58.325Z,10.00
2022-11-08T19:35:26.460Z,10.10
2022-11-08T19:37:54.535Z,10.10
2022-11-08T19:40:23.454Z,10.10
2022-11-08T19:42:55.152Z,10.10
2022-11-08T19:45:24.209Z,10.00
2022-11-08T19:47:53.190Z,9.90
2022-11-08T19:50:21.230Z,9.90
2022-11-08T19:52:50.923Z,9.80
2022-11-08T19:55:18.955Z,9.80
2022-11-08T19:57:47.539Z,9.70
2022-11-08T20:00:18.240Z,9.60
2022-11-08T20:02:46.427Z,9.60
2022-11-08T20:05:14.447Z,9.60
2022-11-08T20:07:45.516Z,9.50
2022-11-08T20:10:14.185Z,9.50
2022-11-08T20:12:42.209Z,9.50
2022-11-08T20:15:10.653Z,9.50
2022-11-08T20:17:40.077Z,9.50
2022-11-08T20:20:08.943Z,9.50
2022-11-08T20:22:36.891Z,9.60
2022-11-08T20:25:05.230Z,9.70
2022-11-08T20:27:33.309Z,9.80
2022-11-08T20:30:01.325Z,9.80
2022-11-08T20:32:29.617Z,9.80
2022-11-08T20:34:59.101Z,9.70
2022-11-08T20:37:27.121Z,9.70
2022-11-08T20:39:54.941Z,9.70
2022-11-08T20:42:24.134Z,9.70
2022-11-08T20:44:53.435Z,9.70
2022-11-08T20:47:21.502Z,9.70
2022-11-08T20:49:49.639Z,9.70
2022-11-08T20:52:22.351Z,9.70
2022-11-08T20:54:50.690Z,9.70
2022-11-08T20:57:18.674Z,9.60
2022-11-08T20:59:46.643Z,9.50
2022-11-08T21:02:15.069Z,9.50
2022-11-08T21:04:43.225Z,9.50
2022-11-08T21:10:20.000Z,9.40
2022-11-08T21:12:48.625Z,9.40
2022-11-08T21:15:16.932Z,9.40
2022-11-08T21:17:44.919Z,9.40
2022-11-08T21:20:13.894Z,9.40
2022-11-08T21:22:41.970Z,9.40
2022-11-08T21:25:11.557Z,9.40
2022-11-08T21:27:39.603Z,9.50
2022-11-08T21:30:09.004Z,9.50
2022-11-08T21:32:37.044Z,9.50
2022-11-08T21:35:05.359Z,9.50
2022-11-08T21:37:33.374Z,9.50
2022-11-08T21:40:01.466Z,9.50
2022-11-08T21:42:33.165Z,9.50
2022-11-08T21:45:05.441Z,9.50
2022-11-08T21:47:33.523Z,9.50
2022-11-08T21:50:01.812Z,9.50
2022-11-08T21:52:29.948Z,9.40
2022-11-08T21:54:57.938Z,9.40
2022-11-08T21:57:26.011Z,9.40
2022-11-08T21:59:55.351Z,9.40
2022-11-08T22:02:23.459Z,9.30
2022-11-08T22:04:51.484Z,9.30
2022-11-08T22:07:19.629Z,9.40
2022-11-08T22:09:47.835Z,9.30
2022-11-08T22:12:15.935Z,9.30
2022-11-08T22:14:43.956Z,9.30
2022-11-08T22:17:13.537Z,9.30
2022-11-08T22:19:41.590Z,9.40
2022-11-08T22:22:10.128Z,9.40
2022-11-08T22:24:38.143Z,9.40
2022-11-08T22:27:06.676Z,9.40
2022-11-08T22:29:34.712Z,9.40
2022-11-08T22:32:02.784Z,9.40
2022-11-08T22:34:32.211Z,9.40
2022-11-08T22:37:00.367Z,9.50
2022-11-08T22:39:28.518Z,9.50
2022-11-08T22:41:56.994Z,9.40
2022-11-08T22:44:25.198Z,9.50
2022-11-08T22:46:53.324Z,9.60
2022-11-08T22:49:21.421Z,9.60
2022-11-08T22:51:50.857Z,9.70
2022-11-08T22:54:18.938Z,9.70
2022-11-08T22:56:47.179Z,9.70
2022-11-08T22:59:15.271Z,9.70
2022-11-08T23:01:43.257Z,9.70
2022-11-08T23:04:11.679Z,9.70
2022-11-08T23:06:40.639Z,9.60
2022-11-08T23:09:10.755Z,9.60
2022-11-08T23:11:56.496Z,9.50
2022-11-08T23:14:42.161Z,9.50
2022-11-08T23:17:10.154Z,9.40
2022-11-08T23:19:55.504Z,9.40
2022-11-08T23:22:41.154Z,9.30
2022-11-08T23:25:10.631Z,9.30
2022-11-08T23:27:56.031Z,9.30
2022-11-08T23:30:41.964Z,9.20
2022-11-08T23:33:10.015Z,9.20
2022-11-08T23:35:38.235Z,9.20
2022-11-08T23:38:06.229Z,9.10
2022-11-08T23:40:53.008Z,9.10
2022-11-08T23:43:38.811Z,9.10
2022-11-08T23:46:08.608Z,9.00
2022-11-08T23:48:37.245Z,9.00
2022-11-08T23:51:06.006Z,9.00
2022-11-08T23:53:36.863Z,9.00
2022-11-08T23:56:07.517Z,9.00
2022-11-08T23:58:35.518Z,9.00
